createdAt,value
2019-05-07T00:01:34.141Z,100.00
2019-05-07T00:04:07.407Z,100.00
2019-05-07T00:06:40.539Z,100.00
2019-05-07T00:09:14.481Z,100.00
2019-05-07T00:11:47.116Z,100.00
2019-05-07T00:14:19.803Z,100.00
2019-05-07T00:16:53.473Z,100.00
2019-05-07T00:19:27.314Z,100.00
2019-05-07T00:22:02.210Z,100.00
2019-05-07T00:24:35.295Z,100.00
2019-05-07T00:27:08.805Z,100.00
2019-05-07T00:29:42.930Z,100.00
2019-05-07T00:32:15.698Z,100.00
2019-05-07T00:34:57.241Z,100.00
2019-05-07T00:37:39.274Z,100.00
2019-05-07T00:40:33.528Z,100.00
2019-05-07T00:43:16.929Z,100.00
2019-05-07T00:45:56.812Z,100.00
2019-05-07T00:48:30.025Z,100.00
2019-05-07T00:51:08.088Z,100.00
2019-05-07T00:53:42.388Z,100.00
2019-05-07T00:56:15.137Z,100.00
2019-05-07T00:58:47.732Z,100.00
2019-05-07T01:01:22.520Z,100.00
2019-05-07T01:03:56.156Z,100.00
2019-05-07T01:06:28.764Z,100.00
2019-05-07T01:09:03.137Z,100.00
2019-05-07T01:11:36.310Z,100.00
2019-05-07T01:14:08.974Z,100.00
2019-05-07T01:16:42.198Z,100.00
2019-05-07T01:19:14.927Z,100.00
2019-05-07T01:21:49.264Z,100.00
2019-05-07T01:24:23.266Z,100.00
2019-05-07T01:26:56.205Z,100.00
2019-05-07T01:29:28.912Z,100.00
2019-05-07T01:32:15.369Z,100.00
2019-05-07T01:34:54.595Z,100.00
2019-05-07T01:37:27.311Z,100.00
2019-05-07T01:40:04.770Z,100.00
2019-05-07T01:42:37.969Z,100.00
2019-05-07T01:45:13.608Z,100.00
2019-05-07T01:47:46.213Z,100.00
2019-05-07T01:50:19.782Z,100.00
2019-05-07T01:52:52.431Z,100.00
2019-05-07T01:55:25.014Z,100.00
2019-05-07T01:57:58.422Z,100.00
2019-05-07T02:00:32.641Z,100.00
2019-05-07T02:03:15.752Z,100.00
2019-05-07T02:05:57.243Z,100.00
2019-05-07T02:08:45.327Z,100.00
2019-05-07T02:11:21.970Z,100.00
2019-05-07T02:13:54.577Z,100.00
2019-05-07T02:16:27.267Z,100.00
2019-05-07T02:19:01.984Z,100.00
2019-05-07T02:21:35.219Z,100.00
2019-05-07T02:24:07.763Z,100.00
2019-05-07T02:26:42.523Z,100.00
2019-05-07T02:29:15.351Z,100.00
2019-05-07T02:31:47.902Z,100.00
2019-05-07T02:34:23.360Z,100.00
2019-05-07T02:36:56.425Z,100.00
2019-05-07T02:39:43.998Z,100.00
2019-05-07T02:42:17.090Z,100.00
2019-05-07T02:44:55.350Z,100.00
2019-05-07T02:47:28.939Z,100.00
2019-05-07T02:50:09.299Z,100.00
2019-05-07T02:52:55.693Z,100.00
2019-05-07T02:55:35.189Z,100.00
2019-05-07T02:58:08.518Z,100.00
2019-05-07T03:00:43.473Z,100.00
2019-05-07T03:03:16.617Z,100.00
2019-05-07T03:05:49.471Z,100.00
2019-05-07T03:08:26.573Z,100.00
2019-05-07T03:11:03.046Z,100.00
2019-05-07T03:13:36.652Z,100.00
2019-05-07T03:16:09.425Z,100.00
2019-05-07T03:18:43.855Z,100.00
2019-05-07T03:21:47.669Z,100.00
2019-05-07T03:24:34.460Z,100.00
2019-05-07T03:27:07.173Z,100.00
2019-05-07T03:29:45.703Z,100.00
2019-05-07T03:32:37.816Z,100.00
2019-05-07T03:35:19.133Z,100.00
2019-05-07T03:37:54.652Z,100.00
2019-05-07T03:40:32.656Z,100.00
2019-05-07T03:43:08.774Z,100.00
2019-05-07T03:46:03.600Z,100.00
2019-05-07T03:48:47.953Z,100.00
2019-05-07T03:51:23.543Z,100.00
2019-05-07T03:53:57.637Z,100.00
2019-05-07T03:56:33.031Z,100.00
2019-05-07T03:59:05.807Z,100.00
2019-05-07T04:01:39.216Z,100.00
2019-05-07T04:04:13.207Z,100.00
2019-05-07T04:06:48.190Z,100.00
2019-05-07T04:09:23.902Z,100.00
2019-05-07T04:11:57.794Z,100.00
2019-05-07T04:14:34.552Z,100.00
2019-05-07T04:17:22.279Z,100.00
2019-05-07T04:19:58.529Z,100.00
2019-05-07T04:22:34.275Z,100.00
2019-05-07T04:25:30.091Z,100.00
2019-05-07T04:28:23.575Z,100.00
2019-05-07T04:30:58.913Z,100.00
2019-05-07T04:33:37.108Z,100.00
2019-05-07T04:36:16.085Z,100.00
2019-05-07T04:38:49.053Z,100.00
2019-05-07T04:41:23.343Z,100.00
2019-05-07T04:43:56.234Z,100.00
2019-05-07T04:46:28.972Z,100.00
2019-05-07T04:49:03.695Z,100.00
2019-05-07T04:52:03.663Z,100.00
2019-05-07T04:54:37.382Z,100.00
2019-05-07T04:57:25.299Z,100.00
2019-05-07T05:00:02.892Z,100.00
2019-05-07T05:02:53.073Z,100.00
2019-05-07T05:05:26.278Z,100.00
2019-05-07T05:07:58.990Z,100.00
2019-05-07T05:10:33.709Z,100.00
2019-05-07T05:13:06.561Z,100.00
2019-05-07T05:15:39.857Z,100.00
2019-05-07T05:18:12.856Z,100.00
2019-05-07T05:21:07.241Z,100.00
2019-05-07T05:23:46.906Z,100.00
2019-05-07T05:26:21.865Z,100.00
2019-05-07T05:28:55.548Z,100.00
2019-05-07T05:31:28.784Z,100.00
2019-05-07T05:34:03.716Z,100.00
2019-05-07T05:36:37.470Z,100.00
2019-05-07T05:39:13.134Z,100.00
2019-05-07T05:41:56.848Z,100.00
2019-05-07T05:44:32.978Z,100.00
2019-05-07T05:47:06.369Z,100.00
2019-05-07T05:49:39.015Z,100.00
2019-05-07T05:52:22.209Z,100.00
2019-05-07T05:55:02.533Z,100.00
2019-05-07T05:57:59.311Z,100.00
2019-05-07T06:00:37.407Z,100.00
2019-05-07T06:03:28.428Z,100.00
2019-05-07T06:06:12.771Z,100.00
2019-05-07T06:08:58.569Z,100.00
2019-05-07T06:11:54.290Z,100.00
2019-05-07T06:14:39.773Z,100.00
2019-05-07T06:17:34.837Z,100.00
2019-05-07T06:20:14.279Z,100.00
2019-05-07T06:23:06.457Z,100.00
2019-05-07T06:25:42.803Z,100.00
2019-05-07T06:28:16.221Z,100.00
2019-05-07T06:30:49.821Z,100.00
2019-05-07T06:33:23.440Z,100.00
2019-05-07T06:35:58.033Z,99.45
2019-05-07T06:38:38.103Z,97.92
2019-05-07T06:42:24.422Z,97.05
2019-05-07T06:45:05.308Z,95.56
2019-05-07T06:47:38.001Z,94.40
2019-05-07T06:50:12.498Z,93.47
2019-05-07T06:52:48.335Z,91.87
2019-05-07T06:55:22.829Z,90.60
2019-05-07T06:57:55.741Z,89.69
2019-05-07T07:00:34.341Z,88.64
2019-05-07T07:03:16.158Z,86.67
2019-05-07T07:05:55.061Z,85.45
2019-05-07T07:08:33.101Z,85.44
2019-05-07T07:11:16.421Z,83.63
2019-05-07T07:13:51.879Z,82.90
2019-05-07T07:16:24.532Z,83.05
2019-05-07T07:18:57.371Z,81.72
2019-05-07T07:21:30.080Z,78.64
2019-05-07T07:24:03.175Z,79.31
2019-05-07T07:26:36.729Z,76.97
2019-05-07T07:29:12.694Z,74.39
2019-05-07T07:31:52.647Z,71.08
2019-05-07T07:34:27.374Z,70.99
2019-05-07T07:37:15.202Z,71.30
2019-05-07T07:40:13.540Z,67.90
2019-05-07T07:42:46.571Z,66.85
2019-05-07T07:45:23.137Z,64.71
2019-05-07T07:47:55.656Z,64.99
2019-05-07T07:50:28.332Z,64.62
2019-05-07T07:53:02.600Z,63.22
2019-05-07T07:55:42.876Z,59.16
2019-05-07T07:58:34.245Z,58.35
2019-05-07T08:01:13.514Z,59.11
2019-05-07T08:03:46.266Z,59.55
2019-05-07T08:06:19.072Z,58.91
2019-05-07T08:08:53.055Z,58.77
2019-05-07T08:11:31.878Z,57.37
2019-05-07T08:14:06.791Z,57.71
2019-05-07T08:16:43.179Z,56.23
2019-05-07T08:19:21.862Z,55.48
2019-05-07T08:21:55.930Z,53.43
2019-05-07T08:24:28.601Z,53.16
2019-05-07T08:27:02.647Z,54.50
2019-05-07T08:29:36.571Z,55.30
2019-05-07T08:32:22.743Z,55.57
2019-05-07T08:35:02.997Z,55.54
2019-05-07T08:37:36.495Z,53.54
2019-05-07T08:40:09.758Z,51.44
2019-05-07T08:42:42.437Z,50.70
2019-05-07T08:45:24.973Z,51.59
2019-05-07T08:48:02.069Z,51.71
2019-05-07T08:50:35.226Z,51.27
2019-05-07T08:53:13.048Z,51.04
2019-05-07T08:55:46.012Z,52.79
2019-05-07T08:58:19.642Z,53.53
2019-05-07T09:00:53.897Z,53.43
2019-05-07T09:03:33.497Z,53.60
2019-05-07T09:06:07.181Z,53.08
2019-05-07T09:08:39.921Z,52.47
2019-05-07T09:11:13.308Z,50.41
2019-05-07T09:13:49.971Z,46.79
2019-05-07T09:16:24.279Z,44.33
2019-05-07T09:18:57.029Z,43.06
2019-05-07T09:21:29.626Z,43.00
2019-05-07T09:24:02.531Z,43.50
2019-05-07T09:26:45.538Z,44.55
2019-05-07T09:29:33.943Z,45.33
2019-05-07T09:32:26.408Z,45.70
2019-05-07T09:35:02.147Z,49.79
2019-05-07T09:37:35.101Z,52.03
2019-05-07T09:40:08.187Z,54.05
2019-05-07T09:42:42.989Z,56.31
2019-05-07T09:45:22.483Z,57.30
2019-05-07T09:47:55.404Z,57.23
2019-05-07T09:50:28.525Z,57.33
2019-05-07T09:53:04.316Z,57.54
2019-05-07T09:55:42.371Z,56.57
2019-05-07T09:58:15.587Z,57.13
2019-05-07T10:00:48.507Z,57.14
2019-05-07T10:03:22.775Z,57.55
2019-05-07T10:05:56.355Z,57.82
2019-05-07T10:08:31.813Z,58.35
2019-05-07T10:11:08.451Z,58.74
2019-05-07T10:13:52.490Z,58.36
2019-05-07T10:16:38.736Z,58.37
2019-05-07T10:19:11.443Z,56.93
2019-05-07T10:21:44.164Z,54.82
2019-05-07T10:24:18.105Z,54.04
2019-05-07T10:26:53.528Z,51.34
2019-05-07T10:29:27.558Z,50.12
2019-05-07T10:32:02.179Z,48.02
2019-05-07T10:34:37.410Z,48.17
2019-05-07T10:37:12.151Z,48.18
2019-05-07T10:39:45.319Z,48.67
2019-05-07T10:42:22.726Z,48.36
2019-05-07T10:45:13.125Z,47.55
2019-05-07T10:48:03.814Z,47.85
2019-05-07T10:50:39.354Z,47.98
2019-05-07T10:53:12.533Z,47.68
2019-05-07T10:55:46.418Z,47.47
2019-05-07T10:58:20.089Z,48.29
2019-05-07T11:01:03.017Z,49.00
2019-05-07T11:03:36.479Z,48.30
2019-05-07T11:06:11.847Z,48.70
2019-05-07T11:08:45.087Z,47.84
2019-05-07T11:11:17.839Z,47.88
2019-05-07T11:13:57.449Z,47.19
2019-05-07T11:16:39.254Z,47.39
2019-05-07T11:19:12.798Z,46.65
2019-05-07T11:21:46.548Z,47.15
2019-05-07T11:24:26.289Z,46.81
2019-05-07T11:26:59.686Z,46.17
2019-05-07T11:29:36.655Z,46.38
2019-05-07T11:32:15.739Z,46.58
2019-05-07T11:34:49.737Z,46.50
2019-05-07T11:37:22.627Z,45.96
2019-05-07T11:39:57.026Z,45.21
2019-05-07T11:42:38.002Z,45.26
2019-05-07T11:45:22.748Z,45.04
2019-05-07T11:48:01.854Z,43.11
2019-05-07T11:51:00.496Z,43.79
2019-05-07T11:54:01.964Z,43.79
2019-05-07T11:56:35.100Z,44.07
2019-05-07T11:59:08.253Z,45.31
2019-05-07T12:01:48.362Z,45.53
2019-05-07T12:04:22.346Z,46.35
2019-05-07T12:06:55.854Z,46.47
2019-05-07T12:09:29.254Z,46.02
2019-05-07T12:12:02.547Z,46.61
2019-05-07T12:14:38.335Z,46.86
2019-05-07T12:17:11.974Z,46.22
2019-05-07T12:19:46.026Z,46.03
2019-05-07T12:22:25.176Z,45.32
2019-05-07T12:24:57.917Z,44.43
2019-05-07T12:27:32.349Z,42.20
2019-05-07T12:30:12.047Z,41.54
2019-05-07T12:32:56.281Z,41.14
2019-05-07T12:35:28.982Z,40.79
2019-05-07T12:38:02.160Z,40.66
2019-05-07T12:40:35.720Z,40.66
2019-05-07T12:43:10.623Z,39.73
2019-05-07T12:45:44.346Z,37.86
2019-05-07T12:48:16.953Z,38.59
2019-05-07T12:50:52.620Z,39.83
2019-05-07T12:53:35.428Z,36.39
2019-05-07T12:56:11.118Z,35.76
2019-05-07T12:58:47.759Z,36.71
2019-05-07T13:01:45.823Z,37.13
2019-05-07T13:04:22.492Z,36.34
2019-05-07T13:07:13.105Z,38.06
2019-05-07T13:09:45.775Z,38.98
2019-05-07T13:12:21.613Z,37.76
2019-05-07T13:14:55.422Z,36.95
2019-05-07T13:17:28.222Z,37.51
2019-05-07T13:20:01.887Z,38.01
2019-05-07T13:22:35.710Z,36.01
2019-05-07T13:25:11.886Z,35.85
2019-05-07T13:27:45.715Z,36.63
2019-05-07T13:30:22.247Z,36.38
2019-05-07T13:33:02.048Z,37.10
2019-05-07T13:35:37.414Z,38.29
2019-05-07T13:38:21.074Z,37.59
2019-05-07T13:41:02.426Z,37.46
2019-05-07T13:44:02.916Z,36.52
2019-05-07T13:46:45.137Z,35.82
2019-05-07T13:49:18.858Z,35.41
2019-05-07T13:52:03.269Z,34.82
2019-05-07T13:54:41.943Z,34.07
2019-05-07T13:57:15.857Z,34.07
2019-05-07T13:59:49.931Z,35.04
2019-05-07T14:02:33.551Z,35.49
2019-05-07T14:05:06.967Z,34.88
2019-05-07T14:08:12.027Z,33.95
2019-05-07T14:10:54.788Z,33.14
2019-05-07T14:13:28.254Z,34.18
2019-05-07T14:16:11.881Z,35.10
2019-05-07T14:18:46.025Z,35.81
2019-05-07T14:21:22.557Z,36.01
2019-05-07T14:24:04.321Z,35.94
2019-05-07T14:26:37.336Z,35.59
2019-05-07T14:29:12.962Z,35.56
2019-05-07T14:31:52.418Z,36.41
2019-05-07T14:34:34.905Z,35.97
2019-05-07T14:37:19.210Z,36.66
2019-05-07T14:39:55.993Z,38.93
2019-05-07T14:42:41.835Z,37.92
2019-05-07T14:45:18.356Z,37.99
2019-05-07T14:47:52.318Z,37.49
2019-05-07T14:50:28.459Z,38.13
2019-05-07T14:53:06.528Z,38.40
2019-05-07T14:55:46.018Z,37.87
2019-05-07T14:58:20.968Z,37.11
2019-05-07T15:00:55.837Z,37.24
2019-05-07T15:03:32.020Z,37.32
2019-05-07T15:06:05.560Z,37.65
2019-05-07T15:08:42.969Z,37.93
2019-05-07T15:11:18.474Z,36.82
2019-05-07T15:14:05.293Z,36.24
2019-05-07T15:16:38.455Z,35.90
2019-05-07T15:19:14.730Z,36.54
2019-05-07T15:21:51.743Z,37.03
2019-05-07T15:24:26.897Z,37.46
2019-05-07T15:27:03.535Z,38.19
2019-05-07T15:29:36.303Z,38.11
2019-05-07T15:32:12.608Z,38.52
2019-05-07T15:34:46.706Z,38.91
2019-05-07T15:37:20.924Z,38.11
2019-05-07T15:39:57.422Z,39.01
2019-05-07T15:42:33.399Z,38.73
2019-05-07T15:45:18.239Z,37.66
2019-05-07T15:47:56.512Z,37.24
2019-05-07T15:50:32.052Z,36.52
2019-05-07T15:53:15.798Z,36.58
2019-05-07T15:55:48.633Z,35.85
2019-05-07T15:58:22.821Z,36.02
2019-05-07T16:01:02.167Z,34.96
2019-05-07T16:03:46.242Z,35.52
2019-05-07T16:06:25.057Z,36.25
2019-05-07T16:09:07.512Z,36.66
2019-05-07T16:11:50.678Z,37.12
2019-05-07T16:14:28.148Z,37.53
2019-05-07T16:17:18.173Z,37.26
2019-05-07T16:19:56.068Z,38.18
2019-05-07T16:22:39.663Z,39.35
2019-05-07T16:25:22.357Z,39.95
2019-05-07T16:28:04.431Z,40.05
2019-05-07T16:30:43.189Z,39.47
2019-05-07T16:33:22.282Z,38.76
2019-05-07T16:36:15.447Z,39.18
2019-05-07T16:38:53.834Z,39.21
2019-05-07T16:41:26.604Z,37.99
2019-05-07T16:44:02.722Z,38.05
2019-05-07T16:46:36.531Z,37.02
2019-05-07T16:49:13.577Z,37.00
2019-05-07T16:52:02.950Z,37.70
2019-05-07T16:54:38.462Z,37.47
2019-05-07T16:57:33.369Z,37.60
2019-05-07T17:00:17.348Z,38.52
2019-05-07T17:02:57.112Z,38.65
2019-05-07T17:05:32.121Z,38.74
2019-05-07T17:08:12.950Z,38.76
2019-05-07T17:10:54.757Z,39.10
2019-05-07T17:13:35.327Z,38.98
2019-05-07T17:16:12.640Z,40.04
2019-05-07T17:18:55.284Z,40.26
2019-05-07T17:21:32.410Z,40.62
2019-05-07T17:24:12.901Z,40.13
2019-05-07T17:26:46.128Z,39.89
2019-05-07T17:29:22.694Z,39.86
2019-05-07T17:31:57.155Z,39.97
2019-05-07T17:34:38.214Z,40.12
2019-05-07T17:37:12.644Z,40.67
2019-05-07T17:39:49.852Z,41.22
2019-05-07T17:42:25.349Z,41.67
2019-05-07T17:44:59.499Z,41.76
2019-05-07T17:47:36.662Z,42.00
2019-05-07T17:50:14.778Z,42.03
2019-05-07T17:52:53.328Z,42.32
2019-05-07T17:55:32.966Z,42.82
2019-05-07T17:58:07.870Z,42.99
2019-05-07T18:00:45.315Z,43.37
2019-05-07T18:03:25.249Z,43.81
2019-05-07T18:05:58.032Z,44.16
2019-05-07T18:08:33.321Z,44.41
2019-05-07T18:11:18.534Z,44.68
2019-05-07T18:13:54.259Z,45.05
2019-05-07T18:16:36.775Z,45.20
2019-05-07T18:19:13.531Z,45.31
2019-05-07T18:21:48.971Z,45.80
2019-05-07T18:24:25.936Z,46.15
2019-05-07T18:27:03.585Z,46.64
2019-05-07T18:29:37.958Z,46.85
2019-05-07T18:32:12.932Z,47.27
2019-05-07T18:34:45.875Z,47.54
2019-05-07T18:37:22.875Z,47.69
2019-05-07T18:40:02.526Z,48.18
2019-05-07T18:42:41.743Z,48.57
2019-05-07T18:45:17.031Z,48.86
2019-05-07T18:47:51.770Z,49.12
2019-05-07T18:50:24.616Z,49.30
2019-05-07T18:52:59.129Z,50.53
2019-05-07T18:55:33.699Z,50.49
2019-05-07T18:58:09.379Z,50.07
2019-05-07T19:00:48.524Z,50.58
2019-05-07T19:03:22.075Z,51.18
2019-05-07T19:05:56.055Z,51.72
2019-05-07T19:08:32.678Z,52.52
2019-05-07T19:11:09.329Z,53.09
2019-05-07T19:13:44.004Z,53.68
2019-05-07T19:16:19.935Z,54.53
2019-05-07T19:18:53.984Z,54.88
2019-05-07T19:21:28.250Z,55.85
2019-05-07T19:24:02.402Z,56.44
2019-05-07T19:26:38.225Z,56.65
2019-05-07T19:29:12.437Z,57.02
2019-05-07T19:31:45.477Z,57.27
2019-05-07T19:34:21.815Z,57.72
2019-05-07T19:36:57.534Z,58.64
2019-05-07T19:39:32.496Z,59.01
2019-05-07T19:42:06.579Z,60.06
2019-05-07T19:44:42.336Z,60.64
2019-05-07T19:47:18.119Z,60.62
2019-05-07T19:49:53.904Z,60.94
2019-05-07T19:52:28.705Z,61.24
2019-05-07T19:55:09.316Z,61.80
2019-05-07T19:57:52.390Z,62.10
2019-05-07T20:00:29.039Z,62.48
2019-05-07T20:03:06.657Z,63.06
2019-05-07T20:05:42.194Z,63.23
2019-05-07T20:08:17.069Z,63.54
2019-05-07T20:10:59.514Z,63.74
2019-05-07T20:13:40.891Z,64.06
2019-05-07T20:16:25.080Z,64.68
2019-05-07T20:19:05.800Z,65.09
2019-05-07T20:21:38.421Z,65.44
2019-05-07T20:24:12.631Z,65.95
2019-05-07T20:26:45.825Z,66.74
2019-05-07T20:29:22.724Z,67.23
2019-05-07T20:31:57.251Z,67.36
2019-05-07T20:34:32.930Z,67.61
2019-05-07T20:37:07.591Z,68.19
2019-05-07T20:39:44.774Z,69.22
2019-05-07T20:42:19.736Z,69.31
2019-05-07T20:44:55.325Z,69.87
2019-05-07T20:47:29.513Z,69.80
2019-05-07T20:50:02.138Z,69.56
2019-05-07T20:52:47.326Z,69.41
2019-05-07T20:55:34.111Z,70.26
2019-05-07T20:58:07.619Z,70.08
2019-05-07T21:00:45.544Z,70.16
2019-05-07T21:03:19.659Z,70.20
2019-05-07T21:05:54.940Z,70.40
2019-05-07T21:08:27.544Z,70.25
2019-05-07T21:11:02.501Z,70.35
2019-05-07T21:13:36.450Z,70.38
2019-05-07T21:16:12.609Z,70.57
2019-05-07T21:18:47.433Z,70.63
2019-05-07T21:21:21.820Z,70.64
2019-05-07T21:23:56.243Z,71.16
2019-05-07T21:26:32.494Z,71.21
2019-05-07T21:29:06.647Z,71.36
2019-05-07T21:31:43.244Z,71.46
2019-05-07T21:34:17.490Z,71.72
2019-05-07T21:36:53.892Z,72.28
2019-05-07T21:39:26.636Z,72.10
2019-05-07T21:42:01.550Z,72.02
2019-05-07T21:44:34.177Z,72.08
2019-05-07T21:47:07.721Z,72.02
2019-05-07T21:49:43.031Z,72.13
2019-05-07T21:52:18.840Z,72.21
2019-05-07T21:55:04.263Z,72.18
2019-05-07T21:57:49.601Z,72.09
2019-05-07T22:00:48.801Z,71.74
2019-05-07T22:03:34.981Z,71.41
2019-05-07T22:06:15.832Z,71.01
2019-05-07T22:08:49.267Z,70.79
2019-05-07T22:11:23.024Z,70.45
2019-05-07T22:13:57.136Z,70.00
2019-05-07T22:16:32.884Z,69.80
2019-05-07T22:19:07.613Z,69.60
2019-05-07T22:21:42.947Z,69.10
2019-05-07T22:24:16.647Z,68.89
2019-05-07T22:26:50.643Z,68.66
2019-05-07T22:29:24.289Z,68.45
2019-05-07T22:32:18.512Z,68.18
2019-05-07T22:34:56.754Z,67.88
2019-05-07T22:37:29.394Z,67.58
2019-05-07T22:40:02.796Z,67.06
2019-05-07T22:42:38.530Z,66.90
2019-05-07T22:45:14.763Z,66.90
2019-05-07T22:47:47.253Z,67.02
2019-05-07T22:50:22.679Z,67.09
2019-05-07T22:52:55.343Z,67.27
2019-05-07T22:55:28.953Z,67.27
2019-05-07T22:58:17.981Z,67.29
2019-05-07T23:00:57.087Z,67.28
2019-05-07T23:03:32.135Z,67.17
2019-05-07T23:06:06.410Z,66.96
2019-05-07T23:08:42.370Z,66.64
2019-05-07T23:11:16.738Z,66.22
2019-05-07T23:13:54.396Z,65.82
2019-05-07T23:16:29.949Z,65.41
2019-05-07T23:19:02.870Z,65.11
2019-05-07T23:21:35.455Z,64.92
2019-05-07T23:24:08.051Z,64.64
2019-05-07T23:26:50.273Z,64.53
2019-05-07T23:29:24.660Z,64.37
2019-05-07T23:31:58.093Z,64.21
2019-05-07T23:34:32.738Z,64.13
2019-05-07T23:37:05.315Z,64.06
2019-05-07T23:39:42.535Z,63.97
2019-05-07T23:42:20.509Z,64.09
2019-05-07T23:44:54.622Z,64.38
2019-05-07T23:47:31.623Z,64.52
2019-05-07T23:50:09.095Z,64.77
2019-05-07T23:52:44.163Z,64.73
2019-05-07T23:55:17.564Z,64.84
2019-05-07T23:57:52.376Z,64.98
